Time;durP1;ratioP1;P1;durP2;ratioP2;P2;SDS_P1;SDS_P2;PMS_P1;PMS_P2;Temp;Humidity;BMP_temperature;BMP_pressure;BME280_temperature;BME280_humidity;BME280_pressure;Samples;Min_cycle;Max_cycle;Signal;HPM_P1;HPM_P2
2021/12/28 00:01:31;;;;;;;2.40;1.47;;;;;;;6.10;100.00;96763.66;5095387;28;20222;-72
2021/12/28 00:03:59;;;;;;;4.30;1.23;;;;;;;6.09;100.00;96767.25;5095437;28;20225;-71
2021/12/28 00:06:26;;;;;;;3.90;1.40;;;;;;;6.08;100.00;96769.97;5095577;28;20242;-71
2021/12/28 00:08:52;;;;;;;4.17;1.47;;;;;;;6.05;100.00;96762.34;5101098;28;20208;-72
2021/12/28 00:11:19;;;;;;;1.83;1.13;;;;;;;6.03;100.00;96767.69;5107777;28;20241;-71
2021/12/28 00:13:45;;;;;;;2.97;1.40;;;;;;;5.97;100.00;96752.41;5095182;28;20241;-72
2021/12/28 00:16:35;;;;;;;3.77;1.40;;;;;;;5.96;100.00;96761.22;5094975;28;20224;-72
2021/12/28 00:19:04;;;;;;;1.67;1.10;;;;;;;5.92;100.00;96757.13;5094779;28;20252;-71
2021/12/28 00:21:30;;;;;;;3.33;1.40;;;;;;;5.92;100.00;96746.66;5094573;28;20721;-72
2021/12/28 00:23:58;;;;;;;5.93;2.30;;;;;;;5.86;100.00;96754.94;5092887;28;20660;-71
2021/12/28 00:26:24;;;;;;;5.40;1.70;;;;;;;5.96;100.00;96750.72;5101607;28;20214;-71
2021/12/28 00:28:51;;;;;;;4.20;1.67;;;;;;;5.97;100.00;96746.31;5101573;28;20549;-71
2021/12/28 00:31:19;;;;;;;4.25;1.40;;;;;;;6.10;100.00;96752.34;5103517;28;20241;-71
2021/12/28 00:33:46;;;;;;;3.50;1.30;;;;;;;6.13;100.00;96752.97;5104869;28;20249;-71
2021/12/28 00:36:16;;;;;;;5.67;1.67;;;;;;;6.10;100.00;96741.88;5101189;28;20217;-71
2021/12/28 00:38:43;;;;;;;6.30;1.50;;;;;;;6.10;100.00;96726.13;5100961;28;20301;-71
2021/12/28 00:41:09;;;;;;;3.57;1.47;;;;;;;6.05;100.00;96733.50;5103918;28;20583;-71
2021/12/28 00:43:36;;;;;;;4.50;1.30;;;;;;;6.00;100.00;96731.22;5104640;28;20221;-71
2021/12/28 00:46:05;;;;;;;4.27;1.27;;;;;;;5.97;100.00;96731.41;5107111;28;20221;-71
2021/12/28 00:48:32;;;;;;;5.93;1.60;;;;;;;5.92;100.00;96728.28;5107571;28;20577;-71
2021/12/28 00:50:58;;;;;;;6.57;2.10;;;;;;;5.93;100.00;96729.13;5102719;28;20223;-71
2021/12/28 00:53:27;;;;;;;9.90;1.80;;;;;;;6.04;100.00;96723.94;5103143;28;20730;-71
2021/12/28 00:55:53;;;;;;;6.27;1.73;;;;;;;6.07;100.00;96723.72;5107193;28;20240;-71
2021/12/28 00:58:22;;;;;;;12.00;2.30;;;;;;;6.18;100.00;96714.09;5107206;28;20213;-71
2021/12/28 01:00:49;;;;;;;8.27;1.73;;;;;;;6.16;100.00;96720.44;5104169;28;20295;-71
2021/12/28 01:03:16;;;;;;;12.83;2.23;;;;;;;6.10;100.00;96721.69;5103315;28;20579;-71
2021/12/28 01:05:43;;;;;;;6.43;1.93;;;;;;;6.23;100.00;96719.84;5106812;28;20220;-71
2021/12/28 01:08:10;;;;;;;8.07;2.90;;;;;;;6.23;100.00;96711.97;5099668;28;20226;-71
2021/12/28 01:10:41;;;;;;;7.63;2.00;;;;;;;6.19;100.00;96710.53;5093835;28;20213;-72
2021/12/28 01:13:08;;;;;;;6.37;2.30;;;;;;;6.24;100.00;96718.88;5093770;28;20328;-72
2021/12/28 01:15:35;;;;;;;8.30;1.80;;;;;;;6.26;100.00;96716.16;5099628;28;20211;-72
2021/12/28 01:18:01;;;;;;;9.53;2.33;;;;;;;6.27;100.00;96713.41;5100227;28;20213;-72
2021/12/28 01:20:28;;;;;;;7.40;2.10;;;;;;;6.26;100.00;96706.50;5103274;28;20217;-71
2021/12/28 01:22:55;;;;;;;5.70;1.53;;;;;;;6.27;100.00;96705.56;5104045;28;20214;-71
2021/12/28 01:25:21;;;;;;;5.53;2.17;;;;;;;6.24;100.00;96713.63;5100092;28;20213;-71
2021/12/28 01:27:50;;;;;;;6.27;1.70;;;;;;;6.14;100.00;96715.28;5100347;28;20214;-71
2021/12/28 01:30:19;;;;;;;7.47;1.80;;;;;;;6.15;100.00;96697.75;5102602;28;20248;-71
2021/12/28 01:32:46;;;;;;;10.60;2.00;;;;;;;6.12;100.00;96706.69;5103810;28;20237;-71
2021/12/28 01:35:18;;;;;;;7.23;1.90;;;;;;;6.12;100.00;96701.44;5106333;28;20211;-71
2021/12/28 01:37:45;;;;;;;7.00;2.47;;;;;;;6.14;100.00;96701.31;5106535;28;20210;-72
2021/12/28 01:40:17;;;;;;;10.03;2.10;;;;;;;6.21;100.00;96690.28;5103299;28;20589;-72
2021/12/28 01:43:06;;;;;;;8.40;1.67;;;;;;;6.20;100.00;96696.47;5101758;28;20218;-71
2021/12/28 01:45:46;;;;;;;3.83;1.80;;;;;;;6.16;100.00;96684.53;5106170;28;20243;-71
2021/12/28 01:48:15;;;;;;;8.23;2.33;;;;;;;6.21;100.00;96679.78;5093502;28;20217;-71
2021/12/28 01:50:43;;;;;;;5.70;1.70;;;;;;;6.27;100.00;96681.09;5093640;28;20217;-71
2021/12/28 01:53:10;;;;;;;11.23;2.03;;;;;;;6.31;100.00;96667.66;5093458;28;20596;-71
2021/12/28 01:55:40;;;;;;;6.57;2.00;;;;;;;6.46;100.00;96673.50;5093141;28;20682;-71
2021/12/28 01:58:08;;;;;;;9.00;1.97;;;;;;;6.51;100.00;96679.25;5093423;28;20589;-71
2021/12/28 02:00:36;;;;;;;4.80;1.50;;;;;;;6.54;100.00;96668.53;5093617;28;20209;-71
2021/12/28 02:03:07;;;;;;;3.53;1.50;;;;;;;6.49;100.00;96655.78;5093086;28;20232;-71
2021/12/28 02:05:34;;;;;;;5.70;1.70;;;;;;;6.42;100.00;96651.91;5093312;28;20215;-72
2021/12/28 02:08:01;;;;;;;2.83;1.50;;;;;;;6.41;100.00;96652.88;5092002;28;20217;-71
2021/12/28 02:10:27;;;;;;;5.70;1.60;;;;;;;6.37;100.00;96654.06;5104367;28;20210;-71
2021/12/28 02:12:54;;;;;;;5.30;1.80;;;;;;;6.31;100.00;96644.03;5105933;28;20240;-71
2021/12/28 02:15:22;;;;;;;3.70;1.50;;;;;;;6.31;100.00;96646.66;5103525;28;20209;-71
2021/12/28 02:17:49;;;;;;;3.53;1.63;;;;;;;6.27;100.00;96633.88;5107145;28;20221;-71
2021/12/28 02:20:19;;;;;;;6.30;1.67;;;;;;;6.25;100.00;96626.16;5105381;28;20206;-71
2021/12/28 02:22:46;;;;;;;3.53;1.67;;;;;;;6.18;100.00;96632.78;5103889;28;20218;-71
2021/12/28 02:25:13;;;;;;;5.03;1.93;;;;;;;6.17;100.00;96633.72;5105112;28;20601;-71
2021/12/28 02:27:41;;;;;;;5.70;1.97;;;;;;;6.19;100.00;96631.84;5107764;28;20208;-71
2021/12/28 02:30:11;;;;;;;4.70;1.80;;;;;;;6.17;100.00;96636.34;5104874;28;20242;-72
2021/12/28 02:32:39;;;;;;;5.80;2.17;;;;;;;6.18;100.00;96624.91;5103339;28;20708;-71
2021/12/28 02:35:08;;;;;;;5.90;2.13;;;;;;;6.13;100.00;96616.59;5103354;28;20688;-71
2021/12/28 02:37:36;;;;;;;5.43;2.00;;;;;;;6.17;100.00;96612.75;5107534;28;20229;-71
2021/12/28 02:40:03;;;;;;;4.43;1.67;;;;;;;6.09;100.00;96609.03;5103847;28;20225;-71
2021/12/28 02:42:29;;;;;;;4.37;1.87;;;;;;;6.04;100.00;96609.38;5103590;28;20595;-71
2021/12/28 02:44:58;;;;;;;3.43;2.00;;;;;;;5.98;100.00;96601.97;5105140;28;20216;-71
2021/12/28 02:47:24;;;;;;;2.47;1.70;;;;;;;5.91;100.00;96600.78;5107266;28;20212;-71
2021/12/28 02:49:51;;;;;;;7.30;2.60;;;;;;;5.85;100.00;96593.38;5104092;28;20220;-70
2021/12/28 02:52:17;;;;;;;6.27;2.10;;;;;;;5.86;100.00;96589.78;5103043;28;20217;-71
2021/12/28 02:54:46;;;;;;;5.67;2.20;;;;;;;5.85;100.00;96585.50;5104338;28;20217;-71
2021/12/28 02:57:12;;;;;;;5.07;2.37;;;;;;;5.84;100.00;96588.22;5107010;28;20215;-72
2021/12/28 02:59:47;;;;;;;8.40;2.00;;;;;;;5.84;100.00;96589.09;5102930;28;20217;-71
2021/12/28 03:02:13;;;;;;;7.10;2.30;;;;;;;5.81;100.00;96578.81;5103167;28;20213;-72
2021/12/28 03:04:42;;;;;;;9.10;2.53;;;;;;;5.88;100.00;96580.03;5105487;28;20220;-72
2021/12/28 03:07:08;;;;;;;4.40;2.43;;;;;;;5.91;100.00;96581.56;5106550;28;20214;-72
2021/12/28 03:09:35;;;;;;;6.37;2.13;;;;;;;5.98;100.00;96575.75;5108122;28;20216;-72
2021/12/28 03:12:04;;;;;;;7.90;2.20;;;;;;;6.04;100.00;96564.81;5109181;28;20256;-72
2021/12/28 03:14:31;;;;;;;4.10;1.90;;;;;;;6.10;100.00;96564.34;5106521;28;20221;-72
2021/12/28 03:16:57;;;;;;;5.60;2.30;;;;;;;6.18;100.00;96561.97;5105482;28;20208;-72
2021/12/28 03:19:24;;;;;;;4.37;1.80;;;;;;;6.23;100.00;96559.00;5108701;28;20219;-72
2021/12/28 03:21:50;;;;;;;8.73;2.50;;;;;;;6.24;100.00;96550.19;5108935;28;20670;-72
2021/12/28 03:24:17;;;;;;;5.67;2.23;;;;;;;6.22;100.00;96552.91;5107148;28;20221;-72
2021/12/28 03:26:44;;;;;;;4.20;2.13;;;;;;;6.27;100.00;96545.53;5103399;28;20694;-72
2021/12/28 03:29:12;;;;;;;6.63;2.20;;;;;;;6.30;100.00;96550.53;5110460;28;20225;-71
2021/12/28 03:31:38;;;;;;;6.37;2.20;;;;;;;6.33;100.00;96547.69;5082291;28;20214;-71
2021/12/28 03:34:05;;;;;;;6.00;2.20;;;;;;;6.37;100.00;96553.53;5083728;28;20239;-72
2021/12/28 03:36:32;;;;;;;5.17;2.37;;;;;;;6.40;100.00;96546.25;5086134;28;20228;-71
2021/12/28 03:39:00;;;;;;;5.87;2.10;;;;;;;6.44;100.00;96547.69;5083222;28;20214;-71
2021/12/28 03:41:28;;;;;;;5.83;1.90;;;;;;;6.41;100.00;96537.41;5082100;28;20273;-71
2021/12/28 03:43:56;;;;;;;4.57;1.80;;;;;;;6.39;100.00;96538.50;5083402;28;20219;-71
2021/12/28 03:46:26;;;;;;;4.53;1.77;;;;;;;6.42;100.00;96539.09;5085803;28;20585;-71
2021/12/28 03:48:53;;;;;;;5.30;1.83;;;;;;;6.40;100.00;96527.88;5082066;28;20214;-72
2021/12/28 03:51:19;;;;;;;6.50;1.90;;;;;;;6.40;100.00;96530.50;5081935;28;20585;-72
2021/12/28 03:53:47;;;;;;;6.77;2.10;;;;;;;6.37;100.00;96528.13;5081517;28;20727;-72
2021/12/28 03:56:15;;;;;;;6.87;2.00;;;;;;;6.44;100.00;96524.06;5085625;28;20240;-72
2021/12/28 03:58:43;;;;;;;6.33;2.37;;;;;;;6.51;100.00;96516.53;5082357;28;20210;-72
2021/12/28 04:01:14;;;;;;;5.80;2.23;;;;;;;6.49;100.00;96518.47;5081472;28;20705;-71
2021/12/28 04:03:42;;;;;;;6.73;1.73;;;;;;;6.49;100.00;96518.47;5084124;28;20222;-71
2021/12/28 04:06:10;;;;;;;5.23;1.80;;;;;;;6.53;100.00;96504.97;5085310;28;20207;-72
2021/12/28 04:08:38;;;;;;;5.33;2.10;;;;;;;6.57;100.00;96506.41;5084131;28;20207;-72
2021/12/28 04:11:15;;;;;;;5.67;2.00;;;;;;;6.68;100.00;96513.44;5074882;28;20219;-72
2021/12/28 04:13:43;;;;;;;6.27;2.23;;;;;;;6.61;100.00;96499.97;5074982;28;20270;-72
2021/12/28 04:16:10;;;;;;;6.43;2.10;;;;;;;6.65;100.00;96504.00;5075047;28;20214;-71
2021/12/28 04:18:37;;;;;;;6.07;1.80;;;;;;;6.65;100.00;96509.25;5072872;28;20215;-72
2021/12/28 04:21:05;;;;;;;5.10;1.97;;;;;;;6.67;100.00;96503.88;5074832;28;20219;-71
2021/12/28 04:23:31;;;;;;;4.30;1.97;;;;;;;6.69;100.00;96508.06;5074739;28;20218;-72
2021/12/28 04:25:58;;;;;;;7.97;2.10;;;;;;;6.74;100.00;96510.31;5074971;28;20215;-71
2021/12/28 04:28:24;;;;;;;7.37;2.03;;;;;;;6.77;100.00;96508.28;5074374;28;20210;-71
2021/12/28 04:30:51;;;;;;;8.30;2.17;;;;;;;6.79;100.00;96511.59;5088548;28;20245;-71
2021/12/28 04:33:17;;;;;;;5.67;1.93;;;;;;;6.83;100.00;96512.22;5094668;28;20593;-72
2021/12/28 04:35:44;;;;;;;4.47;1.90;;;;;;;6.82;100.00;96510.53;5095046;28;20218;-72
2021/12/28 04:38:12;;;;;;;5.63;1.40;;;;;;;6.80;100.00;96502.78;5094451;28;20228;-71
2021/12/28 04:40:39;;;;;;;3.20;1.90;;;;;;;6.82;100.00;96503.50;5094372;28;20589;-72
2021/12/28 04:43:06;;;;;;;4.37;1.80;;;;;;;6.82;100.00;96495.63;5101047;28;20724;-72
2021/12/28 04:45:32;;;;;;;5.37;1.87;;;;;;;6.80;100.00;96492.28;5102794;28;20220;-72
2021/12/28 04:47:59;;;;;;;4.90;1.97;;;;;;;6.79;100.00;96506.34;5100793;28;20214;-73
2021/12/28 04:50:25;;;;;;;5.40;2.33;;;;;;;6.79;100.00;96508.97;5100760;28;20214;-72
2021/12/28 04:52:53;;;;;;;4.20;1.80;;;;;;;6.80;100.00;96494.06;5103264;28;20211;-72
2021/12/28 04:55:20;;;;;;;6.80;2.07;;;;;;;6.79;100.00;96493.22;5104842;28;20216;-72
2021/12/28 04:57:47;;;;;;;2.30;1.80;;;;;;;6.76;100.00;96490.00;5106785;28;20221;-71
2021/12/28 05:00:17;;;;;;;3.60;1.67;;;;;;;6.75;100.00;96491.81;5107112;28;20214;-71
2021/12/28 05:02:44;;;;;;;4.90;1.53;;;;;;;6.74;100.00;96487.53;5104371;28;20582;-71
2021/12/28 05:05:11;;;;;;;3.00;1.43;;;;;;;6.72;100.00;96493.88;5103067;28;20221;-71
2021/12/28 05:07:37;;;;;;;3.03;1.33;;;;;;;6.72;100.00;96484.19;5104381;28;20217;-71
2021/12/28 05:10:06;;;;;;;3.33;2.10;;;;;;;6.73;100.00;96477.97;5092525;28;20581;-71
2021/12/28 05:12:34;;;;;;;5.93;2.20;;;;;;;6.73;100.00;96480.59;5093871;28;20225;-71
2021/12/28 05:15:00;;;;;;;4.33;1.83;;;;;;;6.66;100.00;96468.91;5093862;28;20239;-71
2021/12/28 05:17:28;;;;;;;5.67;1.67;;;;;;;6.61;100.00;96471.09;5106768;28;20208;-71
2021/12/28 05:19:55;;;;;;;7.80;2.23;;;;;;;6.63;100.00;96466.56;5106875;28;20221;-71
2021/12/28 05:22:21;;;;;;;3.87;1.40;;;;;;;6.65;100.00;96462.00;5104501;28;20304;-71
2021/12/28 05:24:48;;;;;;;4.77;1.60;;;;;;;6.66;100.00;96454.97;5103036;28;20213;-71
2021/12/28 05:27:14;;;;;;;4.73;2.03;;;;;;;6.65;100.00;96455.94;5106280;28;20225;-71
2021/12/28 05:29:42;;;;;;;3.10;1.50;;;;;;;6.66;100.00;96458.41;5106655;28;20242;-71
2021/12/28 05:32:09;;;;;;;5.30;1.90;;;;;;;6.67;100.00;96454.00;5104128;28;20692;-70
2021/12/28 05:34:35;;;;;;;4.73;1.67;;;;;;;6.66;100.00;96447.91;5102711;28;20247;-71
2021/12/28 05:37:02;;;;;;;3.87;1.90;;;;;;;6.66;100.00;96453.16;5103729;28;20229;-71
2021/12/28 05:39:28;;;;;;;4.97;1.70;;;;;;;6.67;100.00;96448.75;5106595;28;20210;-71
2021/12/28 05:41:55;;;;;;;8.33;1.93;;;;;;;6.72;100.00;96447.44;5104834;28;20206;-71
2021/12/28 05:44:23;;;;;;;3.07;2.17;;;;;;;6.76;100.00;96450.63;5102455;28;20704;-71
2021/12/28 05:46:52;;;;;;;4.00;1.87;;;;;;;6.76;100.00;96448.84;5105090;28;20300;-72
2021/12/28 05:49:18;;;;;;;6.23;1.73;;;;;;;6.80;100.00;96433.69;5106211;28;20215;-71
2021/12/28 05:51:45;;;;;;;3.70;1.80;;;;;;;6.81;100.00;96446.69;5104074;28;20589;-72
2021/12/28 05:54:12;;;;;;;5.23;1.57;;;;;;;6.81;100.00;96430.94;5102541;28;20610;-72
2021/12/28 05:56:39;;;;;;;5.33;1.67;;;;;;;6.85;100.00;96432.34;5105090;28;20218;-72
2021/12/28 05:59:05;;;;;;;3.50;1.67;;;;;;;6.85;100.00;96432.34;5106708;28;20228;-72
2021/12/28 06:01:32;;;;;;;3.80;1.70;;;;;;;6.83;100.00;96422.97;5100550;28;20218;-72
2021/12/28 06:04:00;;;;;;;2.90;1.60;;;;;;;6.86;100.00;96433.19;5102472;28;20225;-72
2021/12/28 06:06:27;;;;;;;3.60;1.80;;;;;;;6.87;100.00;96430.44;5101070;28;20206;-72
2021/12/28 06:08:53;;;;;;;4.13;1.70;;;;;;;6.89;100.00;96428.53;5099549;28;20217;-72
2021/12/28 06:11:20;;;;;;;5.77;1.90;;;;;;;6.90;100.00;96439.88;5105289;28;20221;-72
2021/12/28 06:13:47;;;;;;;3.60;1.50;;;;;;;6.90;100.00;96434.63;5102196;28;20242;-72
2021/12/28 06:16:15;;;;;;;2.60;1.70;;;;;;;6.93;100.00;96429.09;5104083;28;20229;-72
2021/12/28 06:18:42;;;;;;;5.00;1.73;;;;;;;6.97;100.00;96425.28;5106152;28;20214;-71
2021/12/28 06:21:10;;;;;;;6.97;1.80;;;;;;;7.02;100.00;96418.69;5105096;28;20212;-71
2021/12/28 06:23:37;;;;;;;4.33;1.70;;;;;;;7.01;100.00;96422.28;5102364;28;20217;-71
2021/12/28 06:26:03;;;;;;;4.00;1.67;;;;;;;6.95;100.00;96417.53;5104052;28;20214;-71
2021/12/28 06:28:30;;;;;;;3.90;1.80;;;;;;;6.89;100.00;96415.41;5104415;28;20210;-71
2021/12/28 06:30:56;;;;;;;2.60;1.63;;;;;;;6.89;100.00;96412.78;5105392;28;20253;-71
2021/12/28 06:33:24;;;;;;;2.80;2.07;;;;;;;6.92;100.00;96411.69;5102118;28;20211;-72
2021/12/28 06:35:51;;;;;;;5.07;2.03;;;;;;;6.99;100.00;96418.94;5103440;28;20229;-72
2021/12/28 06:38:19;;;;;;;4.57;2.30;;;;;;;6.91;100.00;96416.09;5105772;28;20229;-72
2021/12/28 06:40:46;;;;;;;4.80;2.00;;;;;;;6.96;100.00;96408.69;5105578;28;20300;-72
2021/12/28 06:43:13;;;;;;;4.13;1.90;;;;;;;6.89;100.00;96407.53;5101728;28;20691;-72
2021/12/28 06:45:40;;;;;;;3.93;1.70;;;;;;;6.89;100.00;96407.53;5102876;28;20215;-72
2021/12/28 06:48:07;;;;;;;2.90;1.77;;;;;;;6.91;100.00;96395.09;5105787;28;20210;-72
2021/12/28 06:50:34;;;;;;;3.13;2.13;;;;;;;6.87;100.00;96396.31;5105768;28;20217;-72
2021/12/28 06:53:01;;;;;;;3.63;1.67;;;;;;;6.88;100.00;96395.34;5102044;28;20584;-72
2021/12/28 06:55:29;;;;;;;4.10;2.10;;;;;;;6.91;100.00;96395.09;5101070;28;20238;-72
2021/12/28 06:57:55;;;;;;;3.37;1.90;;;;;;;6.93;100.00;96398.44;5105871;28;20218;-72
2021/12/28 07:00:22;;;;;;;3.13;1.73;;;;;;;6.95;100.00;96401.75;5105370;28;20220;-73
2021/12/28 07:02:48;;;;;;;4.37;1.83;;;;;;;6.94;100.00;96405.34;5103531;28;20220;-73
2021/12/28 07:05:15;;;;;;;2.53;2.20;;;;;;;6.94;100.00;96413.22;5105799;28;20228;-73
2021/12/28 07:07:41;;;;;;;2.73;1.73;;;;;;;6.98;100.00;96405.94;5106363;28;20203;-73
2021/12/28 07:10:10;;;;;;;2.53;1.60;;;;;;;7.00;100.00;96410.09;5096388;28;20232;-73
2021/12/28 07:12:38;;;;;;;2.30;1.50;;;;;;;7.04;100.00;96406.28;5099390;28;20206;-73
2021/12/28 07:15:05;;;;;;;1.33;1.20;;;;;;;7.04;100.00;96410.69;5099368;28;20231;-73
2021/12/28 07:17:32;;;;;;;2.10;1.30;;;;;;;6.95;100.00;96399.13;5096319;28;20211;-73
2021/12/28 07:19:59;;;;;;;1.30;1.10;;;;;;;6.80;100.00;96399.56;5094455;28;20224;-73
2021/12/28 07:22:25;;;;;;;1.17;0.83;;;;;;;6.74;100.00;96393.03;5096251;28;20222;-73
2021/12/28 07:24:51;;;;;;;1.17;0.97;;;;;;;6.77;100.00;96392.75;5096205;28;20663;-73
2021/12/28 07:27:18;;;;;;;2.00;1.07;;;;;;;6.87;100.00;96388.44;5096105;28;20220;-74
2021/12/28 07:29:46;;;;;;;1.57;1.10;;;;;;;7.03;100.00;96388.81;5095611;28;20704;-73
2021/12/28 07:32:12;;;;;;;1.17;0.90;;;;;;;7.17;100.00;96375.41;5095959;28;20210;-73
2021/12/28 07:34:39;;;;;;;2.33;0.90;;;;;;;7.34;100.00;96385.34;5095550;28;20238;-73
2021/12/28 07:37:05;;;;;;;0.87;0.83;;;;;;;7.39;100.00;96377.88;5102384;28;20215;-73
2021/12/28 07:39:32;;;;;;;2.13;0.70;;;;;;;7.34;100.00;96382.72;5102284;28;20703;-73
2021/12/28 07:41:59;;;;;;;2.77;0.80;;;;;;;7.38;100.00;96386.72;5104906;28;20224;-73
2021/12/28 07:44:26;;;;;;;0.87;0.80;;;;;;;7.47;100.00;96393.84;5105832;28;20694;-73
2021/12/28 07:46:54;;;;;;;0.70;0.70;;;;;;;7.65;100.00;96376.53;5100860;28;20284;-73
2021/12/28 07:49:20;;;;;;;0.73;0.70;;;;;;;7.74;100.00;96386.25;5102044;28;20687;-72
2021/12/28 07:51:47;;;;;;;0.97;0.70;;;;;;;7.82;100.00;96378.53;5104480;28;20226;-72
2021/12/28 07:54:13;;;;;;;1.00;0.80;;;;;;;7.89;100.00;96391.03;5105600;28;20234;-71
2021/12/28 07:56:40;;;;;;;1.73;0.70;;;;;;;8.00;100.00;96390.09;5102187;28;20687;-71
2021/12/28 07:59:08;;;;;;;1.53;0.70;;;;;;;8.07;100.00;96396.47;5102138;28;20217;-71
2021/12/28 08:01:35;;;;;;;0.70;0.70;;;;;;;8.12;100.00;96403.03;5103857;28;20615;-71
2021/12/28 08:04:03;;;;;;;0.73;0.73;;;;;;;8.19;100.00;96392.78;5105796;28;20221;-71
2021/12/28 08:06:30;;;;;;;0.60;0.60;;;;;;;8.19;100.00;96398.94;5102405;28;20218;-71
2021/12/28 08:08:56;;;;;;;0.53;0.53;;;;;;;8.27;100.00;96395.63;5102382;28;20205;-71
2021/12/28 08:11:23;;;;;;;0.60;0.60;;;;;;;8.39;100.00;96405.91;5106250;28;20592;-71
2021/12/28 08:13:50;;;;;;;0.83;0.70;;;;;;;8.42;100.00;96399.53;5101899;28;20217;-71
2021/12/28 08:16:16;;;;;;;0.60;0.60;;;;;;;8.49;100.00;96403.28;5106691;28;20218;-71
2021/12/28 08:18:43;;;;;;;0.50;0.50;;;;;;;8.43;100.00;96402.06;5108140;28;20217;-71
2021/12/28 08:21:11;;;;;;;0.57;0.50;;;;;;;8.52;100.00;96397.78;5106930;28;20226;-71
2021/12/28 08:23:37;;;;;;;0.53;0.50;;;;;;;8.54;100.00;96404.56;5103946;28;20211;-71
2021/12/28 08:26:04;;;;;;;0.70;0.50;;;;;;;8.56;100.00;96401.81;5105949;28;20215;-71
2021/12/28 08:28:30;;;;;;;0.57;0.50;;;;;;;8.46;100.00;96408.84;5106482;28;20214;-71
2021/12/28 08:30:57;;;;;;;0.70;0.60;;;;;;;8.40;100.00;96412.03;5094711;28;20238;-71
2021/12/28 08:33:25;;;;;;;0.80;0.50;;;;;;;8.40;100.00;96412.03;5094922;28;20633;-70
2021/12/28 08:35:52;;;;;;;0.60;0.60;;;;;;;8.44;100.00;96414.25;5094916;28;20230;-71
2021/12/28 08:38:19;;;;;;;0.70;0.70;;;;;;;8.48;100.00;96410.38;5093105;28;20215;-71
2021/12/28 08:40:46;;;;;;;0.60;0.60;;;;;;;8.55;100.00;96410.66;5094389;28;20211;-71
2021/12/28 08:43:13;;;;;;;1.20;0.67;;;;;;;8.57;100.00;96414.00;5094660;28;20212;-71
2021/12/28 08:45:41;;;;;;;0.50;0.50;;;;;;;8.65;100.00;96419.41;5094840;28;20216;-71
2021/12/28 08:48:10;;;;;;;1.33;0.50;;;;;;;8.69;100.00;96418.19;5094237;28;20221;-71
2021/12/28 08:50:37;;;;;;;0.63;0.40;;;;;;;8.66;100.00;96431.63;5094735;28;20306;-71
2021/12/28 08:53:05;;;;;;;0.87;0.60;;;;;;;8.62;100.00;96430.25;5094177;28;20215;-71
2021/12/28 08:55:33;;;;;;;0.50;0.50;;;;;;;8.67;100.00;96430.63;5094226;28;20725;-70
2021/12/28 08:58:00;;;;;;;0.87;0.60;;;;;;;8.66;100.00;96428.97;5094046;28;20213;-71
2021/12/28 09:00:32;;;;;;;0.50;0.50;;;;;;;8.72;100.00;96426.66;5094242;28;20219;-71
2021/12/28 09:02:59;;;;;;;0.97;0.40;;;;;;;8.75;100.00;96429.00;5090583;28;20215;-71
2021/12/28 09:05:27;;;;;;;0.60;0.40;;;;;;;8.86;100.00;96433.31;5091694;28;20218;-71
2021/12/28 09:07:55;;;;;;;0.57;0.50;;;;;;;8.94;100.00;96430.84;5097568;28;20206;-72
2021/12/28 09:10:22;;;;;;;0.40;0.40;;;;;;;9.01;100.00;96430.13;5092071;28;20214;-71
2021/12/28 09:12:50;;;;;;;0.40;0.40;;;;;;;9.07;100.00;96431.41;5093565;28;20222;-71
2021/12/28 09:15:17;;;;;;;0.40;0.40;;;;;;;9.10;100.00;96439.84;5108579;28;20231;-72
2021/12/28 09:17:43;;;;;;;0.57;0.53;;;;;;;9.15;100.00;96432.38;5092996;28;20225;-70
2021/12/28 09:20:12;;;;;;;0.40;0.40;;;;;;;9.22;100.00;96435.28;5094032;28;20224;-72
2021/12/28 09:22:39;;;;;;;0.53;0.43;;;;;;;9.30;100.00;96435.44;5091400;28;20215;-72
2021/12/28 09:25:07;;;;;;;0.43;0.40;;;;;;;9.44;100.00;96433.22;5106851;28;20211;-70
2021/12/28 09:27:33;;;;;;;0.50;0.50;;;;;;;9.43;100.00;96435.97;5109391;28;20214;-72
2021/12/28 09:30:01;;;;;;;0.50;0.50;;;;;;;9.55;100.00;96440.13;5108949;28;20231;-72
2021/12/28 09:32:28;;;;;;;0.77;0.50;;;;;;;9.58;100.00;96447.75;5108367;28;20214;-72
2021/12/28 09:34:56;;;;;;;0.40;0.40;;;;;;;9.62;100.00;96443.88;5094363;28;20245;-73
2021/12/28 09:37:22;;;;;;;0.40;0.40;;;;;;;9.66;100.00;96453.16;5092925;28;20676;-71
2021/12/28 09:39:50;;;;;;;0.50;0.40;;;;;;;9.74;100.00;96453.28;5089367;28;20448;-73
2021/12/28 09:42:18;;;;;;;0.50;0.50;;;;;;;9.70;100.00;96450.09;5104630;28;20217;-75
2021/12/28 09:44:47;;;;;;;0.67;0.40;;;;;;;9.77;100.00;96450.34;5094427;28;20210;-72
2021/12/28 09:47:16;;;;;;;0.67;0.40;;;;;;;9.74;100.00;96458.56;5091204;28;20294;-74
2021/12/28 09:49:43;;;;;;;0.77;0.50;;;;;;;9.77;100.00;96455.63;5093716;28;20219;-72
2021/12/28 09:52:10;;;;;;;0.50;0.50;;;;;;;9.84;100.00;96464.66;5092983;28;20214;-69
2021/12/28 09:54:36;;;;;;;0.37;0.37;;;;;;;9.90;100.00;96462.28;5091515;28;20275;-72
2021/12/28 09:57:04;;;;;;;0.63;0.43;;;;;;;9.91;100.00;96463.13;5100423;28;20216;-70
2021/12/28 09:59:32;;;;;;;0.83;0.50;;;;;;;9.87;100.00;96461.72;5103578;28;20212;-77
2021/12/28 10:02:06;;;;;;;0.50;0.50;;;;;;;9.86;100.00;96460.06;5090496;28;20219;-72
2021/12/28 10:04:35;;;;;;;0.30;0.30;;;;;;;9.96;100.00;96466.97;5104983;28;20245;-71
2021/12/28 10:07:15;;;;;;;0.40;0.40;;;;;;;9.88;100.00;96460.75;5109324;28;20679;-70
2021/12/28 10:09:42;;;;;;;0.80;0.50;;;;;;;9.89;100.00;96454.50;5091863;28;20230;-69
2021/12/28 10:12:10;;;;;;;0.50;0.43;;;;;;;9.97;100.00;96462.56;5093973;28;20215;-70
2021/12/28 10:14:37;;;;;;;0.47;0.47;;;;;;;10.06;100.00;96462.56;5107130;28;20662;-70
2021/12/28 10:17:06;;;;;;;0.50;0.50;;;;;;;10.19;100.00;96467.50;5102163;28;20212;-70
2021/12/28 10:19:38;;;;;;;1.20;0.60;;;;;;;10.17;100.00;96474.75;5093350;28;20211;-69
2021/12/28 10:22:27;;;;;;;0.40;0.40;;;;;;;10.27;100.00;96472.91;5094427;28;20581;-69
2021/12/28 10:24:56;;;;;;;0.80;0.50;;;;;;;10.40;100.00;96470.78;5091096;28;20216;-68
2021/12/28 10:27:25;;;;;;;0.57;0.50;;;;;;;10.51;100.00;96467.97;5093466;28;20218;-68
2021/12/28 10:29:52;;;;;;;0.77;0.60;;;;;;;10.63;100.00;96469.41;5094361;28;20761;-67
2021/12/28 10:32:22;;;;;;;1.10;0.50;;;;;;;10.69;100.00;96472.31;5092026;28;20234;-68
2021/12/28 10:34:52;;;;;;;0.90;0.50;;;;;;;10.77;100.00;96466.28;5090955;28;20233;-68
2021/12/28 10:37:20;;;;;;;0.50;0.40;;;;;;;10.76;100.00;96470.72;5093224;28;20217;-67
2021/12/28 10:39:48;;;;;;;0.70;0.50;;;;;;;10.69;100.00;96468.81;5097311;28;20263;-68
2021/12/28 10:42:37;;;;;;;0.90;0.50;;;;;;;10.68;100.00;96469.81;5096584;28;20225;-68
2021/12/28 10:45:06;;;;;;;0.70;0.40;;;;;;;10.71;100.00;96459.78;5096665;28;20213;-70
2021/12/28 10:47:33;;;;;;;1.90;0.47;;;;;;;10.58;100.00;96453.19;5097086;28;20216;-73
2021/12/28 10:50:08;;;;;;;0.43;0.43;;;;;;;10.56;100.00;96457.75;5096328;28;20293;-70
2021/12/28 10:52:39;;;;;;;0.40;0.40;;;;;;;10.73;100.00;96468.41;5095844;28;20214;-71
2021/12/28 10:55:21;;;;;;;0.50;0.43;;;;;;;11.05;100.00;96467.91;5096056;28;20269;-68
2021/12/28 10:57:48;;;;;;;0.60;0.60;;;;;;;11.38;100.00;96472.56;5112436;28;20209;-70
2021/12/28 11:00:25;;;;;;;1.43;0.40;;;;;;;11.60;100.00;96475.63;5113058;28;20232;-71
2021/12/28 11:02:53;;;;;;;0.40;0.40;;;;;;;11.76;100.00;96459.03;5111668;28;20271;-70
2021/12/28 11:05:43;;;;;;;0.40;0.40;;;;;;;11.76;100.00;96459.03;5109526;28;20289;-70
2021/12/28 11:08:09;;;;;;;0.50;0.40;;;;;;;11.71;100.00;96456.00;5098049;28;20587;-70
2021/12/28 11:10:40;;;;;;;0.33;0.30;;;;;;;11.67;100.00;96457.31;5096552;28;20214;-70
2021/12/28 11:13:07;;;;;;;0.33;0.33;;;;;;;11.64;100.00;96449.69;5097492;28;20218;-70
2021/12/28 11:15:37;;;;;;;1.30;0.50;;;;;;;11.70;100.00;96446.41;5103475;28;20237;-71
2021/12/28 11:18:17;;;;;;;0.40;0.40;;;;;;;11.81;100.00;96438.25;5103242;28;20319;-70
2021/12/28 11:20:46;;;;;;;0.50;0.40;;;;;;;11.93;100.00;96444.94;5113847;28;20274;-71
2021/12/28 11:23:19;;;;;;;0.57;0.50;;;;;;;11.93;100.00;96444.94;5112754;28;20216;-71
2021/12/28 11:25:46;;;;;;;0.20;0.20;;;;;;;12.04;100.00;96436.75;5113937;28;20213;-71
2021/12/28 11:28:15;;;;;;;0.57;0.40;;;;;;;12.09;100.00;96442.38;5114138;28;20218;-71
2021/12/28 11:30:59;;;;;;;0.40;0.40;;;;;;;12.05;100.00;96443.69;5112241;28;20237;-72
2021/12/28 11:33:26;;;;;;;0.50;0.50;;;;;;;12.00;100.00;96430.94;5113348;28;20219;-71
2021/12/28 11:35:54;;;;;;;0.77;0.50;;;;;;;12.05;100.00;96430.47;5113916;28;20245;-70